<?xml version="1.0" encoding="utf-8"?>
<gpx xmlns:xsi="http://www.w3.org/2001/XMLSchema-instance" xmlns:xsd="http://www.w3.org/2001/XMLSchema" version="1.1" creator="Shapelink.com" xmlns="http://www.topografix.com/GPX/1/1" xmlns:gpxtpx="http://www.garmin.com/xmlschemas/TrackPointExtension/v1">
  <metadata>
    <name>Løping 3.08 km, 2012-08-11</name>
    <desc></desc>
    <author><name>Mikael Blom</name></author> 
    <time>2012-08-11T16:24:07Z</time>
  </metadata>
  <trk>
    <name>Løping 3.08 km, 2012-08-11</name>
    <trkseg>
      <trkpt lat="60.0037658" lon="17.7291702">
        <ele>31.3801</ele>
        <time>2012-08-11T16:24:07Z</time>
      </trkpt>
      <trkpt lat="60.0036294" lon="17.7292405">
        <ele>28.4962</ele>
        <time>2012-08-11T16:24:13Z</time>
      </trkpt>
      <trkpt lat="60.0036079" lon="17.7292617">
        <ele>29.4575</ele>
        <time>2012-08-11T16:24:14Z</time>
      </trkpt>
      <trkpt lat="60.0035581" lon="17.7293546">
        <ele>29.4575</ele>
        <time>2012-08-11T16:24:19Z</time>
      </trkpt>
      <trkpt lat="60.0035375" lon="17.7294104">
        <ele>28.4962</ele>
        <time>2012-08-11T16:24:20Z</time>
      </trkpt>
      <trkpt lat="60.0034623" lon="17.729916">
        <ele>29.4575</ele>
        <time>2012-08-11T16:24:26Z</time>
      </trkpt>
      <trkpt lat="60.0033768" lon="17.7301022">
        <ele>26.5736</ele>
        <time>2012-08-11T16:24:29Z</time>
      </trkpt>
      <trkpt lat="60.0032774" lon="17.7302046">
        <ele>28.4962</ele>
        <time>2012-08-11T16:24:34Z</time>
      </trkpt>
      <trkpt lat="60.0032134" lon="17.7302561">
        <ele>28.4962</ele>
        <time>2012-08-11T16:24:37Z</time>
      </trkpt>
      <trkpt lat="60.0031032" lon="17.7304569">
        <ele>29.4575</ele>
        <time>2012-08-11T16:24:43Z</time>
      </trkpt>
      <trkpt lat="60.0030039" lon="17.7305289">
        <ele>29.9381</ele>
        <time>2012-08-11T16:24:47Z</time>
      </trkpt>
      <trkpt lat="60.0028837" lon="17.7306429">
        <ele>30.8995</ele>
        <time>2012-08-11T16:24:52Z</time>
      </trkpt>
      <trkpt lat="60.0028343" lon="17.7308126">
        <ele>32.3416</ele>
        <time>2012-08-11T16:24:56Z</time>
      </trkpt>
      <trkpt lat="60.0027936" lon="17.7308595">
        <ele>32.3416</ele>
        <time>2012-08-11T16:24:58Z</time>
      </trkpt>
      <trkpt lat="60.0027034" lon="17.731105">
        <ele>35.7061</ele>
        <time>2012-08-11T16:25:04Z</time>
      </trkpt>
      <trkpt lat="60.0026514" lon="17.7312459">
        <ele>39.5513</ele>
        <time>2012-08-11T16:25:08Z</time>
      </trkpt>
      <trkpt lat="60.002578" lon="17.7314363">
        <ele>41.9547</ele>
        <time>2012-08-11T16:25:13Z</time>
      </trkpt>
      <trkpt lat="60.0025476" lon="17.7314843">
        <ele>41.9547</ele>
        <time>2012-08-11T16:25:15Z</time>
      </trkpt>
      <trkpt lat="60.002508" lon="17.7315825">
        <ele>44.358</ele>
        <time>2012-08-11T16:25:18Z</time>
      </trkpt>
      <trkpt lat="60.0024601" lon="17.7318359">
        <ele>41.9547</ele>
        <time>2012-08-11T16:25:24Z</time>
      </trkpt>
      <trkpt lat="60.0024373" lon="17.7320674">
        <ele>36.1868</ele>
        <time>2012-08-11T16:25:30Z</time>
      </trkpt>
      <trkpt lat="60.0023916" lon="17.7322239">
        <ele>33.3029</ele>
        <time>2012-08-11T16:25:34Z</time>
      </trkpt>
      <trkpt lat="60.0023249" lon="17.7324133">
        <ele>29.4575</ele>
        <time>2012-08-11T16:25:39Z</time>
      </trkpt>
      <trkpt lat="60.0023613" lon="17.7328134">
        <ele>30.8995</ele>
        <time>2012-08-11T16:25:45Z</time>
      </trkpt>
      <trkpt lat="60.0023515" lon="17.7330603">
        <ele>32.3416</ele>
        <time>2012-08-11T16:25:50Z</time>
      </trkpt>
      <trkpt lat="60.0023956" lon="17.7333915">
        <ele>42.4354</ele>
        <time>2012-08-11T16:25:55Z</time>
      </trkpt>
      <trkpt lat="60.0024009" lon="17.7335385">
        <ele>45.7999</ele>
        <time>2012-08-11T16:26:00Z</time>
      </trkpt>
      <trkpt lat="60.002395" lon="17.7337907">
        <ele>49.6453</ele>
        <time>2012-08-11T16:26:06Z</time>
      </trkpt>
      <trkpt lat="60.0023755" lon="17.7340142">
        <ele>48.684</ele>
        <time>2012-08-11T16:26:12Z</time>
      </trkpt>
      <trkpt lat="60.0023004" lon="17.7342113">
        <ele>43.3966</ele>
        <time>2012-08-11T16:26:18Z</time>
      </trkpt>
      <trkpt lat="60.002277" lon="17.7343597">
        <ele>33.7834</ele>
        <time>2012-08-11T16:26:23Z</time>
      </trkpt>
      <trkpt lat="60.0022238" lon="17.734562">
        <ele>31.3801</ele>
        <time>2012-08-11T16:26:28Z</time>
      </trkpt>
      <trkpt lat="60.0021702" lon="17.7348456">
        <ele>30.8995</ele>
        <time>2012-08-11T16:26:34Z</time>
      </trkpt>
      <trkpt lat="60.0021485" lon="17.7350589">
        <ele>32.3416</ele>
        <time>2012-08-11T16:26:39Z</time>
      </trkpt>
      <trkpt lat="60.0021179" lon="17.7353258">
        <ele>37.6287</ele>
        <time>2012-08-11T16:26:44Z</time>
      </trkpt>
      <trkpt lat="60.0020656" lon="17.7355926">
        <ele>36.6675</ele>
        <time>2012-08-11T16:26:50Z</time>
      </trkpt>
      <trkpt lat="60.001986" lon="17.7357377">
        <ele>32.8223</ele>
        <time>2012-08-11T16:26:55Z</time>
      </trkpt>
      <trkpt lat="60.0019129" lon="17.7357833">
        <ele>33.3029</ele>
        <time>2012-08-11T16:26:59Z</time>
      </trkpt>
      <trkpt lat="60.0017565" lon="17.735837">
        <ele>27.5349</ele>
        <time>2012-08-11T16:27:06Z</time>
      </trkpt>
      <trkpt lat="60.0016798" lon="17.7359501">
        <ele>26.5736</ele>
        <time>2012-08-11T16:27:11Z</time>
      </trkpt>
      <trkpt lat="60.0016341" lon="17.7360198">
        <ele>27.5349</ele>
        <time>2012-08-11T16:27:14Z</time>
      </trkpt>
      <trkpt lat="60.001512" lon="17.7361899">
        <ele>28.9769</ele>
        <time>2012-08-11T16:27:21Z</time>
      </trkpt>
      <trkpt lat="60.001404" lon="17.7363338">
        <ele>28.9769</ele>
        <time>2012-08-11T16:27:27Z</time>
      </trkpt>
      <trkpt lat="60.0012743" lon="17.736432">
        <ele>26.0929</ele>
        <time>2012-08-11T16:27:34Z</time>
      </trkpt>
      <trkpt lat="60.0011944" lon="17.7364374">
        <ele>25.6123</ele>
        <time>2012-08-11T16:27:37Z</time>
      </trkpt>
      <trkpt lat="60.0010628" lon="17.7364804">
        <ele>27.5349</ele>
        <time>2012-08-11T16:27:41Z</time>
      </trkpt>
      <trkpt lat="60.0009163" lon="17.7365274">
        <ele>35.2255</ele>
        <time>2012-08-11T16:27:46Z</time>
      </trkpt>
      <trkpt lat="60.000867" lon="17.7365708">
        <ele>37.6287</ele>
        <time>2012-08-11T16:27:48Z</time>
      </trkpt>
      <trkpt lat="60.0006921" lon="17.7366668">
        <ele>39.5513</ele>
        <time>2012-08-11T16:27:54Z</time>
      </trkpt>
      <trkpt lat="60.0005345" lon="17.7367468">
        <ele>40.9934</ele>
        <time>2012-08-11T16:28:00Z</time>
      </trkpt>
      <trkpt lat="60.000409" lon="17.736789">
        <ele>40.0321</ele>
        <time>2012-08-11T16:28:05Z</time>
      </trkpt>
      <trkpt lat="60.0003874" lon="17.7368051">
        <ele>40.5128</ele>
        <time>2012-08-11T16:28:06Z</time>
      </trkpt>
      <trkpt lat="60.0003005" lon="17.736914">
        <ele>40.0321</ele>
        <time>2012-08-11T16:28:11Z</time>
      </trkpt>
      <trkpt lat="60.000176" lon="17.7369153">
        <ele>38.5901</ele>
        <time>2012-08-11T16:28:17Z</time>
      </trkpt>
      <trkpt lat="60.0001093" lon="17.7369108">
        <ele>40.0321</ele>
        <time>2012-08-11T16:28:21Z</time>
      </trkpt>
      <trkpt lat="60.0000757" lon="17.736916">
        <ele>40.5128</ele>
        <time>2012-08-11T16:28:23Z</time>
      </trkpt>
      <trkpt lat="59.9999854" lon="17.7369115">
        <ele>40.0321</ele>
        <time>2012-08-11T16:28:27Z</time>
      </trkpt>
      <trkpt lat="59.9998268" lon="17.736915">
        <ele>37.6287</ele>
        <time>2012-08-11T16:28:34Z</time>
      </trkpt>
      <trkpt lat="59.9996855" lon="17.7368765">
        <ele>36.6675</ele>
        <time>2012-08-11T16:28:41Z</time>
      </trkpt>
      <trkpt lat="59.999542" lon="17.7368166">
        <ele>33.7834</ele>
        <time>2012-08-11T16:28:48Z</time>
      </trkpt>
      <trkpt lat="59.9993871" lon="17.7367953">
        <ele>30.8995</ele>
        <time>2012-08-11T16:28:54Z</time>
      </trkpt>
      <trkpt lat="59.9992771" lon="17.7367808">
        <ele>24.1703</ele>
        <time>2012-08-11T16:29:00Z</time>
      </trkpt>
      <trkpt lat="59.9992057" lon="17.7367959">
        <ele>15.0377</ele>
        <time>2012-08-11T16:29:05Z</time>
      </trkpt>
      <trkpt lat="59.9991478" lon="17.7367793">
        <ele>8.78918</ele>
        <time>2012-08-11T16:29:09Z</time>
      </trkpt>
      <trkpt lat="59.9990644" lon="17.7367648">
        <ele>0</ele>
        <time>2012-08-11T16:29:14Z</time>
      </trkpt>
      <trkpt lat="59.9989664" lon="17.7367605">
        <ele>0</ele>
        <time>2012-08-11T16:29:21Z</time>
      </trkpt>
      <trkpt lat="59.9988866" lon="17.7367715">
        <ele>0</ele>
        <time>2012-08-11T16:29:27Z</time>
      </trkpt>
      <trkpt lat="59.9987779" lon="17.7367853">
        <ele>0</ele>
        <time>2012-08-11T16:29:35Z</time>
      </trkpt>
      <trkpt lat="59.9986883" lon="17.7367698">
        <ele>0</ele>
        <time>2012-08-11T16:29:41Z</time>
      </trkpt>
      <trkpt lat="59.9985976" lon="17.7367962">
        <ele>0</ele>
        <time>2012-08-11T16:29:48Z</time>
      </trkpt>
      <trkpt lat="59.9985308" lon="17.7368146">
        <ele>0</ele>
        <time>2012-08-11T16:29:52Z</time>
      </trkpt>
      <trkpt lat="59.9984811" lon="17.7368145">
        <ele>0</ele>
        <time>2012-08-11T16:29:57Z</time>
      </trkpt>
      <trkpt lat="59.9984581" lon="17.7368306">
        <ele>0</ele>
        <time>2012-08-11T16:29:59Z</time>
      </trkpt>
      <trkpt lat="59.9983603" lon="17.7367959">
        <ele>0</ele>
        <time>2012-08-11T16:30:06Z</time>
      </trkpt>
      <trkpt lat="59.9982778" lon="17.7367762">
        <ele>0</ele>
        <time>2012-08-11T16:30:11Z</time>
      </trkpt>
      <trkpt lat="59.9982174" lon="17.7368041">
        <ele>0</ele>
        <time>2012-08-11T16:30:16Z</time>
      </trkpt>
      <trkpt lat="59.9981662" lon="17.7367793">
        <ele>0</ele>
        <time>2012-08-11T16:30:19Z</time>
      </trkpt>
      <trkpt lat="59.9980421" lon="17.7367446">
        <ele>0</ele>
        <time>2012-08-11T16:30:25Z</time>
      </trkpt>
      <trkpt lat="59.9979678" lon="17.7367389">
        <ele>0</ele>
        <time>2012-08-11T16:30:28Z</time>
      </trkpt>
      <trkpt lat="59.997901" lon="17.7367255">
        <ele>0</ele>
        <time>2012-08-11T16:30:31Z</time>
      </trkpt>
      <trkpt lat="59.9978184" lon="17.7366938">
        <ele>0</ele>
        <time>2012-08-11T16:30:36Z</time>
      </trkpt>
      <trkpt lat="59.9977398" lon="17.7366423">
        <ele>0</ele>
        <time>2012-08-11T16:30:41Z</time>
      </trkpt>
      <trkpt lat="59.9977239" lon="17.7366278">
        <ele>0</ele>
        <time>2012-08-11T16:30:42Z</time>
      </trkpt>
      <trkpt lat="59.997665" lon="17.7365938">
        <ele>0</ele>
        <time>2012-08-11T16:30:46Z</time>
      </trkpt>
      <trkpt lat="59.9975506" lon="17.7364551">
        <ele>0</ele>
        <time>2012-08-11T16:30:53Z</time>
      </trkpt>
      <trkpt lat="59.9974521" lon="17.7363932">
        <ele>0</ele>
        <time>2012-08-11T16:30:59Z</time>
      </trkpt>
      <trkpt lat="59.9974315" lon="17.7363847">
        <ele>0</ele>
        <time>2012-08-11T16:31:00Z</time>
      </trkpt>
      <trkpt lat="59.9972923" lon="17.7363125">
        <ele>0</ele>
        <time>2012-08-11T16:31:06Z</time>
      </trkpt>
      <trkpt lat="59.9971975" lon="17.7362702">
        <ele>0</ele>
        <time>2012-08-11T16:31:11Z</time>
      </trkpt>
      <trkpt lat="59.9971048" lon="17.736272">
        <ele>0</ele>
        <time>2012-08-11T16:31:17Z</time>
      </trkpt>
      <trkpt lat="59.9968831" lon="17.736355">
        <ele>0</ele>
        <time>2012-08-11T16:31:24Z</time>
      </trkpt>
      <trkpt lat="59.9967997" lon="17.7363478">
        <ele>0</ele>
        <time>2012-08-11T16:31:29Z</time>
      </trkpt>
      <trkpt lat="59.9966768" lon="17.7363519">
        <ele>0</ele>
        <time>2012-08-11T16:31:35Z</time>
      </trkpt>
      <trkpt lat="59.9965474" lon="17.73633">
        <ele>0</ele>
        <time>2012-08-11T16:31:41Z</time>
      </trkpt>
      <trkpt lat="59.9964614" lon="17.7363114">
        <ele>0</ele>
        <time>2012-08-11T16:31:45Z</time>
      </trkpt>
      <trkpt lat="59.9963888" lon="17.7363245">
        <ele>0</ele>
        <time>2012-08-11T16:31:49Z</time>
      </trkpt>
      <trkpt lat="59.9962422" lon="17.736212">
        <ele>0</ele>
        <time>2012-08-11T16:31:57Z</time>
      </trkpt>
      <trkpt lat="59.9961148" lon="17.7361188">
        <ele>0</ele>
        <time>2012-08-11T16:32:03Z</time>
      </trkpt>
      <trkpt lat="59.995991" lon="17.7360394">
        <ele>0</ele>
        <time>2012-08-11T16:32:09Z</time>
      </trkpt>
      <trkpt lat="59.9958774" lon="17.7359453">
        <ele>0</ele>
        <time>2012-08-11T16:32:14Z</time>
      </trkpt>
      <trkpt lat="59.9957316" lon="17.7358794">
        <ele>0</ele>
        <time>2012-08-11T16:32:20Z</time>
      </trkpt>
      <trkpt lat="59.9956797" lon="17.7358577">
        <ele>0</ele>
        <time>2012-08-11T16:32:24Z</time>
      </trkpt>
      <trkpt lat="59.9955586" lon="17.73587">
        <ele>0</ele>
        <time>2012-08-11T16:32:30Z</time>
      </trkpt>
      <trkpt lat="59.995444" lon="17.735821">
        <ele>0</ele>
        <time>2012-08-11T16:32:35Z</time>
      </trkpt>
      <trkpt lat="59.9953416" lon="17.7358161">
        <ele>0</ele>
        <time>2012-08-11T16:32:39Z</time>
      </trkpt>
      <trkpt lat="59.9952627" lon="17.7357748">
        <ele>0</ele>
        <time>2012-08-11T16:32:44Z</time>
      </trkpt>
      <trkpt lat="59.9951058" lon="17.7357463">
        <ele>0</ele>
        <time>2012-08-11T16:32:51Z</time>
      </trkpt>
      <trkpt lat="59.9949693" lon="17.7358379">
        <ele>0</ele>
        <time>2012-08-11T16:32:57Z</time>
      </trkpt>
      <trkpt lat="59.9948748" lon="17.7359941">
        <ele>0</ele>
        <time>2012-08-11T16:33:02Z</time>
      </trkpt>
      <trkpt lat="59.9948583" lon="17.7360202">
        <ele>0</ele>
        <time>2012-08-11T16:33:03Z</time>
      </trkpt>
      <trkpt lat="59.9948057" lon="17.7361042">
        <ele>0</ele>
        <time>2012-08-11T16:33:07Z</time>
      </trkpt>
      <trkpt lat="59.9946358" lon="17.7362733">
        <ele>0</ele>
        <time>2012-08-11T16:33:13Z</time>
      </trkpt>
      <trkpt lat="59.9945924" lon="17.736461">
        <ele>0</ele>
        <time>2012-08-11T16:33:18Z</time>
      </trkpt>
      <trkpt lat="59.9944847" lon="17.7365498">
        <ele>0</ele>
        <time>2012-08-11T16:33:22Z</time>
      </trkpt>
      <trkpt lat="59.9943655" lon="17.7367757">
        <ele>0</ele>
        <time>2012-08-11T16:33:27Z</time>
      </trkpt>
      <trkpt lat="59.9942426" lon="17.7370098">
        <ele>0</ele>
        <time>2012-08-11T16:33:34Z</time>
      </trkpt>
      <trkpt lat="59.9941411" lon="17.737175">
        <ele>0</ele>
        <time>2012-08-11T16:33:40Z</time>
      </trkpt>
      <trkpt lat="59.9940371" lon="17.7372823">
        <ele>0</ele>
        <time>2012-08-11T16:33:45Z</time>
      </trkpt>
      <trkpt lat="59.9936137" lon="17.7373701">
        <ele>0</ele>
        <time>2012-08-11T16:33:51Z</time>
      </trkpt>
      <trkpt lat="59.9935868" lon="17.7374007">
        <ele>0</ele>
        <time>2012-08-11T16:33:52Z</time>
      </trkpt>
      <trkpt lat="59.9934666" lon="17.7374929">
        <ele>0</ele>
        <time>2012-08-11T16:33:57Z</time>
      </trkpt>
      <trkpt lat="59.9932927" lon="17.737532">
        <ele>0</ele>
        <time>2012-08-11T16:34:02Z</time>
      </trkpt>
      <trkpt lat="59.9931917" lon="17.7375563">
        <ele>0</ele>
        <time>2012-08-11T16:34:04Z</time>
      </trkpt>
      <trkpt lat="59.9929659" lon="17.7375782">
        <ele>0</ele>
        <time>2012-08-11T16:34:06Z</time>
      </trkpt>
      <trkpt lat="59.9923556" lon="17.7375775">
        <ele>14.557</ele>
        <time>2012-08-11T16:34:12Z</time>
      </trkpt>
      <trkpt lat="59.9922941" lon="17.7375799">
        <ele>21.767</ele>
        <time>2012-08-11T16:34:13Z</time>
      </trkpt>
      <trkpt lat="59.9921413" lon="17.7376196">
        <ele>31.8607</ele>
        <time>2012-08-11T16:34:17Z</time>
      </trkpt>
      <trkpt lat="59.9920489" lon="17.7376392">
        <ele>34.2642</ele>
        <time>2012-08-11T16:34:20Z</time>
      </trkpt>
      <trkpt lat="59.9919129" lon="17.7376937">
        <ele>39.5513</ele>
        <time>2012-08-11T16:34:25Z</time>
      </trkpt>
      <trkpt lat="59.9918661" lon="17.7377022">
        <ele>40.5128</ele>
        <time>2012-08-11T16:34:27Z</time>
      </trkpt>
      <trkpt lat="59.991733" lon="17.7377501">
        <ele>40.9934</ele>
        <time>2012-08-11T16:34:33Z</time>
      </trkpt>
      <trkpt lat="59.9916178" lon="17.7377267">
        <ele>42.4354</ele>
        <time>2012-08-11T16:34:38Z</time>
      </trkpt>
      <trkpt lat="59.9915238" lon="17.7377241">
        <ele>45.7999</ele>
        <time>2012-08-11T16:34:42Z</time>
      </trkpt>
      <trkpt lat="59.9914264" lon="17.7377361">
        <ele>45.7999</ele>
        <time>2012-08-11T16:34:46Z</time>
      </trkpt>
      <trkpt lat="59.991313" lon="17.7377376">
        <ele>50.126</ele>
        <time>2012-08-11T16:34:51Z</time>
      </trkpt>
      <trkpt lat="59.9912141" lon="17.7376972">
        <ele>53.9712</ele>
        <time>2012-08-11T16:34:56Z</time>
      </trkpt>
      <trkpt lat="59.9910602" lon="17.737839">
        <ele>51.0872</ele>
        <time>2012-08-11T16:35:02Z</time>
      </trkpt>
      <trkpt lat="59.9909091" lon="17.7379342">
        <ele>53.9712</ele>
        <time>2012-08-11T16:35:08Z</time>
      </trkpt>
      <trkpt lat="59.9908266" lon="17.7379749">
        <ele>53.4905</ele>
        <time>2012-08-11T16:35:12Z</time>
      </trkpt>
      <trkpt lat="59.9906943" lon="17.7380598">
        <ele>52.0486</ele>
        <time>2012-08-11T16:35:18Z</time>
      </trkpt>
      <trkpt lat="59.9905918" lon="17.7380893">
        <ele>52.0486</ele>
        <time>2012-08-11T16:35:22Z</time>
      </trkpt>
      <trkpt lat="59.990538" lon="17.7381095">
        <ele>50.126</ele>
        <time>2012-08-11T16:35:24Z</time>
      </trkpt>
      <trkpt lat="59.9904508" lon="17.7381504">
        <ele>48.684</ele>
        <time>2012-08-11T16:35:28Z</time>
      </trkpt>
      <trkpt lat="59.9903195" lon="17.7382225">
        <ele>45.3192</ele>
        <time>2012-08-11T16:35:34Z</time>
      </trkpt>
      <trkpt lat="59.9901903" lon="17.7382883">
        <ele>41.9547</ele>
        <time>2012-08-11T16:35:40Z</time>
      </trkpt>
      <trkpt lat="59.990039" lon="17.73837">
        <ele>40.0321</ele>
        <time>2012-08-11T16:35:47Z</time>
      </trkpt>
      <trkpt lat="59.9898812" lon="17.7384296">
        <ele>37.6287</ele>
        <time>2012-08-11T16:35:54Z</time>
      </trkpt>
      <trkpt lat="59.98977" lon="17.7384697">
        <ele>36.6675</ele>
        <time>2012-08-11T16:35:59Z</time>
      </trkpt>
      <trkpt lat="59.9896784" lon="17.7385079">
        <ele>35.2255</ele>
        <time>2012-08-11T16:36:03Z</time>
      </trkpt>
      <trkpt lat="59.9895941" lon="17.7385382">
        <ele>35.7061</ele>
        <time>2012-08-11T16:36:07Z</time>
      </trkpt>
      <trkpt lat="59.9894784" lon="17.7385939">
        <ele>34.2642</ele>
        <time>2012-08-11T16:36:13Z</time>
      </trkpt>
      <trkpt lat="59.9894134" lon="17.7386284">
        <ele>34.7449</ele>
        <time>2012-08-11T16:36:16Z</time>
      </trkpt>
      <trkpt lat="59.9892698" lon="17.7386973">
        <ele>35.7061</ele>
        <time>2012-08-11T16:36:22Z</time>
      </trkpt>
      <trkpt lat="59.9891264" lon="17.7387824">
        <ele>38.1094</ele>
        <time>2012-08-11T16:36:28Z</time>
      </trkpt>
      <trkpt lat="59.9889431" lon="17.7388421">
        <ele>44.358</ele>
        <time>2012-08-11T16:36:34Z</time>
      </trkpt>
      <trkpt lat="59.9888012" lon="17.7389413">
        <ele>50.6066</ele>
        <time>2012-08-11T16:36:40Z</time>
      </trkpt>
      <trkpt lat="59.988641" lon="17.7390845">
        <ele>52.5292</ele>
        <time>2012-08-11T16:36:47Z</time>
      </trkpt>
      <trkpt lat="59.9885106" lon="17.7391599">
        <ele>52.5292</ele>
        <time>2012-08-11T16:36:53Z</time>
      </trkpt>
      <trkpt lat="59.9884027" lon="17.7391539">
        <ele>52.0486</ele>
        <time>2012-08-11T16:36:58Z</time>
      </trkpt>
      <trkpt lat="59.9882953" lon="17.7392082">
        <ele>53.4905</ele>
        <time>2012-08-11T16:37:03Z</time>
      </trkpt>
      <trkpt lat="59.9881728" lon="17.7392714">
        <ele>51.5679</ele>
        <time>2012-08-11T16:37:08Z</time>
      </trkpt>
      <trkpt lat="59.9881458" lon="17.7392809">
        <ele>50.126</ele>
        <time>2012-08-11T16:37:09Z</time>
      </trkpt>
      <trkpt lat="59.9879948" lon="17.7393007">
        <ele>47.2418</ele>
        <time>2012-08-11T16:37:15Z</time>
      </trkpt>
      <trkpt lat="59.9878622" lon="17.7393031">
        <ele>46.2806</ele>
        <time>2012-08-11T16:37:20Z</time>
      </trkpt>
      <trkpt lat="59.9878374" lon="17.7393112">
        <ele>46.2806</ele>
        <time>2012-08-11T16:37:21Z</time>
      </trkpt>
      <trkpt lat="59.9876936" lon="17.7393522">
        <ele>46.2806</ele>
        <time>2012-08-11T16:37:26Z</time>
      </trkpt>
      <trkpt lat="59.9875329" lon="17.7393682">
        <ele>46.2806</ele>
        <time>2012-08-11T16:37:31Z</time>
      </trkpt>
      <trkpt lat="59.9873634" lon="17.7393822">
        <ele>46.2806</ele>
        <time>2012-08-11T16:37:36Z</time>
      </trkpt>
      <trkpt lat="59.9872176" lon="17.7393792">
        <ele>46.7612</ele>
        <time>2012-08-11T16:37:41Z</time>
      </trkpt>
      <trkpt lat="59.9870586" lon="17.7393232">
        <ele>46.7612</ele>
        <time>2012-08-11T16:37:46Z</time>
      </trkpt>
      <trkpt lat="59.9869233" lon="17.7392469">
        <ele>47.2418</ele>
        <time>2012-08-11T16:37:51Z</time>
      </trkpt>
      <trkpt lat="59.9867576" lon="17.739126">
        <ele>48.684</ele>
        <time>2012-08-11T16:37:57Z</time>
      </trkpt>
      <trkpt lat="59.9866237" lon="17.7390058">
        <ele>48.684</ele>
        <time>2012-08-11T16:38:02Z</time>
      </trkpt>
      <trkpt lat="59.9865197" lon="17.7389304">
        <ele>50.126</ele>
        <time>2012-08-11T16:38:06Z</time>
      </trkpt>
      <trkpt lat="59.9863737" lon="17.7388327">
        <ele>48.2034</ele>
        <time>2012-08-11T16:38:12Z</time>
      </trkpt>
      <trkpt lat="59.9862519" lon="17.7387097">
        <ele>46.7612</ele>
        <time>2012-08-11T16:38:17Z</time>
      </trkpt>
      <trkpt lat="59.9861386" lon="17.7386216">
        <ele>44.358</ele>
        <time>2012-08-11T16:38:22Z</time>
      </trkpt>
      <trkpt lat="59.9860762" lon="17.7386093">
        <ele>44.358</ele>
        <time>2012-08-11T16:38:25Z</time>
      </trkpt>
      <trkpt lat="59.9859901" lon="17.7385421">
        <ele>42.4354</ele>
        <time>2012-08-11T16:38:29Z</time>
      </trkpt>
      <trkpt lat="59.9858726" lon="17.7384716">
        <ele>41.9547</ele>
        <time>2012-08-11T16:38:34Z</time>
      </trkpt>
      <trkpt lat="59.9857195" lon="17.7383811">
        <ele>41.9547</ele>
        <time>2012-08-11T16:38:40Z</time>
      </trkpt>
      <trkpt lat="59.9855392" lon="17.7383297">
        <ele>41.474</ele>
        <time>2012-08-11T16:38:47Z</time>
      </trkpt>
      <trkpt lat="59.9853707" lon="17.7382748">
        <ele>41.474</ele>
        <time>2012-08-11T16:38:53Z</time>
      </trkpt>
      <trkpt lat="59.9852343" lon="17.7382359">
        <ele>40.5128</ele>
        <time>2012-08-11T16:38:59Z</time>
      </trkpt>
      <trkpt lat="59.985096" lon="17.7382065">
        <ele>40.9934</ele>
        <time>2012-08-11T16:39:05Z</time>
      </trkpt>
      <trkpt lat="59.9849303" lon="17.7381592">
        <ele>39.5513</ele>
        <time>2012-08-11T16:39:12Z</time>
      </trkpt>
      <trkpt lat="59.9848086" lon="17.7381433">
        <ele>37.6287</ele>
        <time>2012-08-11T16:39:17Z</time>
      </trkpt>
      <trkpt lat="59.984632" lon="17.7380747">
        <ele>39.5513</ele>
        <time>2012-08-11T16:39:24Z</time>
      </trkpt>
      <trkpt lat="59.9844639" lon="17.7380613">
        <ele>36.6675</ele>
        <time>2012-08-11T16:39:29Z</time>
      </trkpt>
      <trkpt lat="59.9843232" lon="17.7380344">
        <ele>38.5901</ele>
        <time>2012-08-11T16:39:34Z</time>
      </trkpt>
      <trkpt lat="59.9842343" lon="17.737975">
        <ele>38.1094</ele>
        <time>2012-08-11T16:39:38Z</time>
      </trkpt>
      <trkpt lat="59.9840737" lon="17.7379842">
        <ele>34.7449</ele>
        <time>2012-08-11T16:39:45Z</time>
      </trkpt>
      <trkpt lat="59.9839654" lon="17.7379997">
        <ele>37.1481</ele>
        <time>2012-08-11T16:39:50Z</time>
      </trkpt>
      <trkpt lat="59.9838451" lon="17.7380355">
        <ele>36.1868</ele>
        <time>2012-08-11T16:39:55Z</time>
      </trkpt>
      <trkpt lat="59.9837472" lon="17.7380304">
        <ele>34.7449</ele>
        <time>2012-08-11T16:39:59Z</time>
      </trkpt>
      <trkpt lat="59.9836348" lon="17.7380474">
        <ele>34.7449</ele>
        <time>2012-08-11T16:40:04Z</time>
      </trkpt>
      <trkpt lat="59.9836153" lon="17.7380634">
        <ele>34.2642</ele>
        <time>2012-08-11T16:40:05Z</time>
      </trkpt>
      <trkpt lat="59.9834743" lon="17.7381059">
        <ele>34.7449</ele>
        <time>2012-08-11T16:40:11Z</time>
      </trkpt>
      <trkpt lat="59.9833165" lon="17.7381052">
        <ele>30.4188</ele>
        <time>2012-08-11T16:40:17Z</time>
      </trkpt>
      <trkpt lat="59.9831744" lon="17.7381292">
        <ele>30.4188</ele>
        <time>2012-08-11T16:40:22Z</time>
      </trkpt>
      <trkpt lat="59.9830465" lon="17.7381523">
        <ele>31.3801</ele>
        <time>2012-08-11T16:40:27Z</time>
      </trkpt>
      <trkpt lat="59.9829009" lon="17.7381278">
        <ele>35.7061</ele>
        <time>2012-08-11T16:40:32Z</time>
      </trkpt>
      <trkpt lat="59.9827265" lon="17.7380783">
        <ele>39.0707</ele>
        <time>2012-08-11T16:40:38Z</time>
      </trkpt>
      <trkpt lat="59.9826222" lon="17.7380879">
        <ele>40.5128</ele>
        <time>2012-08-11T16:40:42Z</time>
      </trkpt>
      <trkpt lat="59.9825109" lon="17.7381171">
        <ele>43.3966</ele>
        <time>2012-08-11T16:40:46Z</time>
      </trkpt>
      <trkpt lat="59.9824019" lon="17.7381214">
        <ele>41.9547</ele>
        <time>2012-08-11T16:40:50Z</time>
      </trkpt>
      <trkpt lat="59.98218" lon="17.7382277">
        <ele>42.4354</ele>
        <time>2012-08-11T16:40:57Z</time>
      </trkpt>
      <trkpt lat="59.9820183" lon="17.7382371">
        <ele>42.4354</ele>
        <time>2012-08-11T16:41:03Z</time>
      </trkpt>
      <trkpt lat="59.9818953" lon="17.7382955">
        <ele>41.9547</ele>
        <time>2012-08-11T16:41:08Z</time>
      </trkpt>
      <trkpt lat="59.9817744" lon="17.7383229">
        <ele>39.5513</ele>
        <time>2012-08-11T16:41:13Z</time>
      </trkpt>
      <trkpt lat="59.9817314" lon="17.7383373">
        <ele>40.5128</ele>
        <time>2012-08-11T16:41:15Z</time>
      </trkpt>
      <trkpt lat="59.9815816" lon="17.7384042">
        <ele>40.0321</ele>
        <time>2012-08-11T16:41:21Z</time>
      </trkpt>
      <trkpt lat="59.9814747" lon="17.7384317">
        <ele>39.5513</ele>
        <time>2012-08-11T16:41:25Z</time>
      </trkpt>
      <trkpt lat="59.9813496" lon="17.7384519">
        <ele>38.1094</ele>
        <time>2012-08-11T16:41:30Z</time>
      </trkpt>
      <trkpt lat="59.9812122" lon="17.7384723">
        <ele>37.6287</ele>
        <time>2012-08-11T16:41:36Z</time>
      </trkpt>
      <trkpt lat="59.9811027" lon="17.7385192">
        <ele>40.0321</ele>
        <time>2012-08-11T16:41:41Z</time>
      </trkpt>
      <trkpt lat="59.9809691" lon="17.738596">
        <ele>37.1481</ele>
        <time>2012-08-11T16:41:46Z</time>
      </trkpt>
      <trkpt lat="59.9808575" lon="17.7386476">
        <ele>36.1868</ele>
        <time>2012-08-11T16:41:50Z</time>
      </trkpt>
      <trkpt lat="59.980752" lon="17.7386778">
        <ele>34.2642</ele>
        <time>2012-08-11T16:41:54Z</time>
      </trkpt>
      <trkpt lat="59.9806232" lon="17.738714">
        <ele>31.8607</ele>
        <time>2012-08-11T16:41:59Z</time>
      </trkpt>
      <trkpt lat="59.9805388" lon="17.7387103">
        <ele>32.3416</ele>
        <time>2012-08-11T16:42:03Z</time>
      </trkpt>
      <trkpt lat="59.9804337" lon="17.7387123">
        <ele>29.9381</ele>
        <time>2012-08-11T16:42:08Z</time>
      </trkpt>
      <trkpt lat="59.98029" lon="17.7387187">
        <ele>29.4575</ele>
        <time>2012-08-11T16:42:14Z</time>
      </trkpt>
      <trkpt lat="59.9801486" lon="17.7387294">
        <ele>27.5349</ele>
        <time>2012-08-11T16:42:19Z</time>
      </trkpt>
      <trkpt lat="59.9799642" lon="17.7387397">
        <ele>26.5736</ele>
        <time>2012-08-11T16:42:26Z</time>
      </trkpt>
      <trkpt lat="59.9798456" lon="17.7387757">
        <ele>27.0543</ele>
        <time>2012-08-11T16:42:30Z</time>
      </trkpt>
      <trkpt lat="59.9797012" lon="17.738831">
        <ele>30.4188</ele>
        <time>2012-08-11T16:42:35Z</time>
      </trkpt>
      <trkpt lat="59.9795789" lon="17.7388912">
        <ele>32.3416</ele>
        <time>2012-08-11T16:42:40Z</time>
      </trkpt>
      <trkpt lat="59.9794418" lon="17.7389699">
        <ele>30.4188</ele>
        <time>2012-08-11T16:42:46Z</time>
      </trkpt>
      <trkpt lat="59.979275" lon="17.7390766">
        <ele>29.4575</ele>
        <time>2012-08-11T16:42:52Z</time>
      </trkpt>
      <trkpt lat="59.979138" lon="17.7391648">
        <ele>29.4575</ele>
        <time>2012-08-11T16:42:57Z</time>
      </trkpt>
      <trkpt lat="59.9789836" lon="17.7392642">
        <ele>28.9769</ele>
        <time>2012-08-11T16:43:03Z</time>
      </trkpt>
      <trkpt lat="59.9789626" lon="17.7392664">
        <ele>28.4962</ele>
        <time>2012-08-11T16:43:04Z</time>
      </trkpt>
    </trkseg>
  </trk>
</gpx>